createdAt,value
2018-03-16T00:00:58.185Z,92.90
2018-03-16T00:01:58.146Z,92.94
2018-03-16T00:02:58.145Z,93.51
2018-03-16T00:03:58.182Z,93.51
2018-03-16T00:04:58.192Z,93.41
2018-03-16T00:05:58.143Z,94.46
2018-03-16T00:06:58.205Z,94.56
2018-03-16T00:07:58.183Z,95.41
2018-03-16T00:08:58.169Z,95.79
2018-03-16T00:09:58.162Z,95.60
2018-03-16T00:10:58.179Z,95.98
2018-03-16T00:11:58.178Z,96.17
2018-03-16T00:12:58.171Z,97.22
2018-03-16T00:13:58.171Z,97.60
2018-03-16T00:14:58.161Z,97.22
2018-03-16T00:15:58.162Z,97.31
2018-03-16T00:16:58.139Z,97.69
2018-03-16T00:17:58.137Z,98.07
2018-03-16T00:18:58.147Z,97.97
2018-03-16T00:19:58.184Z,98.45
2018-03-16T00:20:58.242Z,98.92
2018-03-16T00:21:58.127Z,99.02
2018-03-16T00:22:59.070Z,99.49
2018-03-16T00:23:58.126Z,99.30
2018-03-16T00:24:58.390Z,99.21
2018-03-16T00:25:58.156Z,99.58
2018-03-16T00:26:58.147Z,99.77
2018-03-16T00:27:58.144Z,99.49
2018-03-16T00:28:58.187Z,99.99
2018-03-16T00:29:58.120Z,99.87
2018-03-16T00:30:58.178Z,99.99
2018-03-16T00:31:58.116Z,99.99
2018-03-16T00:32:58.129Z,99.99
2018-03-16T00:33:58.143Z,99.99
2018-03-16T00:34:58.210Z,99.99
2018-03-16T00:35:58.149Z,99.99
2018-03-16T00:36:58.120Z,99.99
2018-03-16T00:37:58.123Z,99.99
2018-03-16T00:38:58.136Z,99.99
2018-03-16T00:39:58.120Z,99.99
2018-03-16T00:40:58.146Z,99.99
2018-03-16T00:41:58.113Z,99.99
2018-03-16T00:42:58.132Z,99.99
2018-03-16T00:43:58.145Z,99.99
2018-03-16T00:44:58.150Z,99.99
2018-03-16T00:45:58.118Z,99.99
2018-03-16T00:46:58.145Z,99.99
2018-03-16T00:47:58.138Z,99.99
2018-03-16T00:48:58.105Z,99.99
2018-03-16T00:49:58.118Z,99.99
2018-03-16T00:50:58.118Z,99.99
2018-03-16T00:51:58.100Z,99.99
2018-03-16T00:52:58.094Z,99.99
2018-03-16T00:53:58.119Z,99.99
2018-03-16T00:54:58.091Z,99.99
2018-03-16T00:55:58.110Z,99.99
2018-03-16T00:56:58.093Z,99.99
2018-03-16T00:57:58.108Z,99.99
2018-03-16T00:58:58.103Z,99.99
2018-03-16T00:59:58.110Z,99.99
2018-03-16T01:00:58.089Z,99.99
2018-03-16T01:01:58.137Z,99.99
2018-03-16T01:02:58.098Z,99.91
2018-03-16T01:03:58.095Z,99.99
2018-03-16T01:04:58.096Z,99.99
2018-03-16T01:05:58.094Z,99.91
2018-03-16T01:06:58.082Z,99.99
2018-03-16T01:07:58.130Z,99.99
2018-03-16T01:08:58.080Z,99.87
2018-03-16T01:09:58.107Z,99.99
2018-03-16T01:10:58.105Z,99.63
2018-03-16T01:11:58.146Z,99.99
2018-03-16T01:12:58.108Z,99.99
2018-03-16T01:13:58.101Z,99.99
2018-03-16T01:14:58.075Z,99.99
2018-03-16T01:15:58.071Z,99.99
2018-03-16T01:16:58.076Z,99.99
2018-03-16T01:17:58.120Z,99.99
2018-03-16T01:18:58.142Z,99.99
2018-03-16T01:19:58.100Z,99.99
2018-03-16T01:20:58.096Z,99.99
2018-03-16T01:21:58.090Z,99.99
2018-03-16T01:22:58.095Z,99.99
2018-03-16T01:23:58.078Z,99.99
2018-03-16T01:24:58.098Z,99.99
2018-03-16T01:25:58.069Z,99.99
2018-03-16T01:26:58.092Z,99.99
2018-03-16T01:27:58.078Z,99.99
2018-03-16T01:28:58.068Z,99.99
2018-03-16T01:29:58.086Z,99.99
2018-03-16T01:30:58.078Z,99.99
2018-03-16T01:31:58.143Z,99.99
2018-03-16T01:32:58.065Z,99.99
2018-03-16T01:33:58.063Z,99.99
2018-03-16T01:34:58.082Z,99.99
2018-03-16T01:35:58.055Z,99.99
2018-03-16T01:36:58.125Z,99.99
2018-03-16T01:37:58.055Z,99.99
2018-03-16T01:38:58.048Z,99.99
2018-03-16T01:39:58.060Z,99.99
2018-03-16T01:40:58.051Z,99.99
2018-03-16T01:41:58.052Z,99.99
2018-03-16T01:42:58.111Z,99.99
2018-03-16T01:43:58.081Z,99.99
2018-03-16T01:44:58.060Z,99.99
2018-03-16T01:45:58.074Z,99.99
2018-03-16T01:46:58.066Z,99.99
2018-03-16T01:47:58.061Z,99.99
2018-03-16T01:48:58.077Z,99.99
2018-03-16T01:49:58.093Z,99.99
2018-03-16T01:50:58.059Z,99.99
2018-03-16T01:51:58.038Z,99.99
2018-03-16T01:52:58.100Z,99.99
2018-03-16T01:53:58.032Z,99.99
2018-03-16T01:54:58.067Z,99.99
2018-03-16T01:55:58.069Z,99.99
2018-03-16T01:56:58.034Z,99.99
2018-03-16T01:57:58.044Z,99.99
2018-03-16T01:58:58.061Z,99.99
2018-03-16T01:59:58.040Z,99.99
2018-03-16T02:00:58.051Z,99.99
2018-03-16T02:01:58.050Z,99.99
2018-03-16T02:02:58.089Z,99.99
2018-03-16T02:03:58.021Z,99.99
2018-03-16T02:04:58.032Z,99.99
2018-03-16T02:05:58.031Z,99.99
2018-03-16T02:06:58.021Z,99.99
2018-03-16T02:07:58.030Z,99.99
2018-03-16T02:08:58.026Z,99.99
2018-03-16T02:09:58.042Z,99.99
2018-03-16T02:10:58.056Z,99.99
2018-03-16T02:11:58.014Z,99.99
2018-03-16T02:12:58.082Z,99.99
2018-03-16T02:13:58.027Z,99.99
2018-03-16T02:14:58.025Z,99.99
2018-03-16T02:15:58.019Z,99.99
2018-03-16T02:16:58.014Z,99.99
2018-03-16T02:17:58.014Z,99.99
2018-03-16T02:18:58.021Z,99.99
2018-03-16T02:19:58.032Z,99.99
2018-03-16T02:20:58.008Z,99.99
2018-03-16T02:21:58.012Z,99.99
2018-03-16T02:22:58.101Z,99.99
2018-03-16T02:23:58.005Z,99.99
2018-03-16T02:24:58.024Z,99.99
2018-03-16T02:25:57.995Z,99.99
2018-03-16T02:26:58.000Z,99.99
2018-03-16T02:27:58.028Z,99.99
2018-03-16T02:28:58.007Z,99.99
2018-03-16T02:29:57.996Z,99.99
2018-03-16T02:30:58.033Z,99.99
2018-03-16T02:31:58.001Z,99.99
2018-03-16T02:32:58.593Z,99.99
2018-03-16T02:33:57.994Z,99.99
2018-03-16T02:34:57.985Z,99.99
2018-03-16T02:35:58.001Z,99.99
2018-03-16T02:36:58.035Z,99.99
2018-03-16T02:37:58.000Z,99.99
2018-03-16T02:38:58.004Z,99.99
2018-03-16T02:39:57.977Z,99.99
2018-03-16T02:40:57.994Z,99.99
2018-03-16T02:41:57.982Z,99.99
2018-03-16T02:42:57.988Z,99.99
2018-03-16T02:43:57.980Z,99.99
2018-03-16T02:44:57.979Z,99.99
2018-03-16T02:45:57.966Z,99.99
2018-03-16T02:46:58.017Z,99.99
2018-03-16T02:47:57.987Z,99.99
2018-03-16T02:48:57.990Z,99.99
2018-03-16T02:49:58.006Z,99.99
2018-03-16T02:50:57.982Z,99.99
2018-03-16T02:51:58.002Z,99.99
2018-03-16T02:52:57.975Z,99.99
2018-03-16T02:53:57.973Z,99.99
2018-03-16T02:54:57.952Z,99.99
2018-03-16T02:55:57.958Z,99.99
2018-03-16T02:56:57.976Z,99.99
2018-03-16T02:57:57.976Z,99.99
2018-03-16T02:58:57.970Z,99.99
2018-03-16T02:59:57.991Z,99.99
2018-03-16T03:00:57.968Z,99.99
2018-03-16T03:01:57.956Z,99.99
2018-03-16T03:02:57.981Z,99.99
2018-03-16T03:03:58.112Z,99.99
2018-03-16T03:04:57.947Z,99.99
2018-03-16T03:05:57.942Z,99.99
2018-03-16T03:06:57.964Z,99.99
2018-03-16T03:07:57.941Z,99.99
2018-03-16T03:08:57.957Z,99.99
2018-03-16T03:09:57.944Z,99.99
2018-03-16T03:10:57.960Z,99.99
2018-03-16T03:11:57.946Z,99.99
2018-03-16T03:12:57.954Z,99.99
2018-03-16T03:13:57.940Z,99.99
2018-03-16T03:14:57.961Z,99.99
2018-03-16T03:15:57.962Z,99.99
2018-03-16T03:16:57.936Z,99.99
2018-03-16T03:17:57.952Z,99.99
2018-03-16T03:18:57.943Z,99.99
2018-03-16T03:19:57.937Z,99.99
2018-03-16T03:20:57.940Z,99.99
2018-03-16T03:21:57.939Z,99.99
2018-03-16T03:22:57.944Z,99.99
2018-03-16T03:23:57.933Z,99.99
2018-03-16T03:24:57.936Z,99.99
2018-03-16T03:25:57.918Z,99.99
2018-03-16T03:26:57.912Z,99.99
2018-03-16T03:27:57.917Z,99.99
2018-03-16T03:28:57.942Z,99.99
2018-03-16T03:29:57.927Z,99.99
2018-03-16T03:30:57.917Z,99.99
2018-03-16T03:31:57.919Z,99.99
2018-03-16T03:32:57.914Z,99.99
2018-03-16T03:33:57.906Z,99.99
2018-03-16T03:34:57.916Z,99.99
2018-03-16T03:35:57.920Z,99.99
2018-03-16T03:36:57.906Z,99.99
2018-03-16T03:37:57.916Z,99.99
2018-03-16T03:38:57.902Z,99.99
2018-03-16T03:39:57.903Z,99.99
2018-03-16T03:40:57.911Z,99.99
2018-03-16T03:41:57.903Z,99.99
2018-03-16T03:42:57.896Z,99.99
2018-03-16T03:43:57.906Z,99.99
2018-03-16T03:44:57.892Z,99.99
2018-03-16T03:45:57.891Z,99.99
2018-03-16T03:46:57.918Z,99.99
2018-03-16T03:47:57.890Z,99.99
2018-03-16T03:48:57.955Z,99.99
2018-03-16T03:49:57.915Z,99.99
2018-03-16T03:50:57.933Z,99.99
2018-03-16T03:51:57.908Z,99.99
2018-03-16T03:52:57.923Z,99.99
2018-03-16T03:53:57.921Z,99.99
2018-03-16T03:54:57.897Z,99.99
2018-03-16T03:55:57.880Z,99.99
2018-03-16T03:56:57.882Z,99.99
2018-03-16T03:57:57.901Z,99.99
2018-03-16T03:58:57.884Z,99.99
2018-03-16T03:59:57.896Z,99.99
2018-03-16T04:00:57.884Z,99.99
2018-03-16T04:01:57.882Z,99.99
2018-03-16T04:02:57.876Z,99.99
2018-03-16T04:03:57.880Z,99.99
2018-03-16T04:04:58.606Z,99.99
2018-03-16T04:05:57.880Z,99.99
2018-03-16T04:06:57.892Z,99.99
2018-03-16T04:07:57.878Z,99.99
2018-03-16T04:08:57.868Z,99.99
2018-03-16T04:09:57.875Z,99.99
2018-03-16T04:10:57.859Z,99.99
2018-03-16T04:11:57.862Z,99.99
2018-03-16T04:12:57.876Z,99.99
2018-03-16T04:13:57.878Z,99.99
2018-03-16T04:14:57.867Z,99.99
2018-03-16T04:15:57.878Z,99.99
2018-03-16T04:16:57.879Z,99.99
2018-03-16T04:17:57.895Z,99.99
2018-03-16T04:18:57.845Z,99.99
2018-03-16T04:19:57.904Z,99.99
2018-03-16T04:20:58.613Z,99.99
2018-03-16T04:21:57.916Z,99.99
2018-03-16T04:22:57.848Z,99.99
2018-03-16T04:23:57.894Z,99.99
2018-03-16T04:24:57.835Z,99.99
2018-03-16T04:25:57.880Z,99.99
2018-03-16T04:26:57.840Z,99.99
2018-03-16T04:27:57.875Z,99.99
2018-03-16T04:28:57.834Z,99.99
2018-03-16T04:29:57.845Z,99.99
2018-03-16T04:30:57.863Z,99.99
2018-03-16T04:31:57.850Z,99.99
2018-03-16T04:32:57.836Z,99.99
2018-03-16T04:33:58.614Z,99.99
2018-03-16T04:34:57.855Z,99.99
2018-03-16T04:35:57.845Z,99.99
2018-03-16T04:36:57.833Z,99.99
2018-03-16T04:37:57.823Z,99.99
2018-03-16T04:38:57.835Z,99.99
2018-03-16T04:39:57.812Z,99.99
2018-03-16T04:40:57.843Z,99.99
2018-03-16T04:41:57.855Z,99.99
2018-03-16T04:42:57.824Z,99.99
2018-03-16T04:43:57.826Z,99.99
2018-03-16T04:44:57.810Z,99.99
2018-03-16T04:45:57.804Z,99.99
2018-03-16T04:46:57.844Z,99.99
2018-03-16T04:47:57.812Z,99.99
2018-03-16T04:48:57.839Z,99.99
2018-03-16T04:49:57.816Z,99.99
2018-03-16T04:50:57.831Z,99.99
2018-03-16T04:51:57.824Z,99.99
2018-03-16T04:52:57.799Z,99.99
2018-03-16T04:53:57.819Z,99.99
2018-03-16T04:54:57.823Z,99.99
2018-03-16T04:55:57.816Z,99.99
2018-03-16T04:56:57.786Z,99.99
2018-03-16T04:57:57.785Z,99.99
2018-03-16T04:58:57.812Z,99.99
2018-03-16T04:59:57.813Z,99.99
2018-03-16T05:00:57.794Z,99.99
2018-03-16T05:01:57.798Z,99.99
2018-03-16T05:02:57.804Z,99.99
2018-03-16T05:03:57.788Z,99.99
2018-03-16T05:04:57.776Z,99.99
2018-03-16T05:05:57.803Z,99.99
2018-03-16T05:06:57.789Z,99.99
2018-03-16T05:07:57.783Z,99.99
2018-03-16T05:08:57.795Z,99.99
2018-03-16T05:09:57.768Z,99.99
2018-03-16T05:10:57.790Z,99.99
2018-03-16T05:11:57.782Z,99.99
2018-03-16T05:12:57.797Z,99.99
2018-03-16T05:13:57.768Z,99.99
2018-03-16T05:14:57.794Z,99.99
2018-03-16T05:15:57.832Z,99.99
2018-03-16T05:16:57.795Z,99.99
2018-03-16T05:17:57.760Z,99.99
2018-03-16T05:18:57.759Z,99.99
2018-03-16T05:19:57.773Z,99.99
2018-03-16T05:20:57.814Z,99.99
2018-03-16T05:21:57.771Z,99.99
2018-03-16T05:22:57.782Z,99.99
2018-03-16T05:23:57.766Z,99.99
2018-03-16T05:24:57.779Z,99.99
2018-03-16T05:25:57.789Z,99.99
2018-03-16T05:26:57.799Z,99.99
2018-03-16T05:27:57.848Z,99.99
2018-03-16T05:28:57.811Z,99.99
2018-03-16T05:29:57.763Z,99.99
2018-03-16T05:30:57.739Z,99.99
2018-03-16T05:31:57.754Z,99.99
2018-03-16T05:32:57.773Z,99.99
2018-03-16T05:33:57.730Z,99.99
2018-03-16T05:34:57.739Z,99.99
2018-03-16T05:35:57.761Z,99.99
2018-03-16T05:36:57.758Z,99.99
2018-03-16T05:37:57.764Z,99.99
2018-03-16T05:38:57.720Z,99.99
2018-03-16T05:39:57.728Z,99.99
2018-03-16T05:40:57.723Z,99.99
2018-03-16T05:41:57.743Z,99.99
2018-03-16T05:42:57.744Z,99.99
2018-03-16T05:43:57.739Z,99.99
2018-03-16T05:44:57.753Z,99.99
2018-03-16T05:45:57.783Z,99.99
2018-03-16T05:46:57.730Z,99.99
2018-03-16T05:47:57.757Z,99.99
2018-03-16T05:48:57.734Z,99.99
2018-03-16T05:49:57.714Z,99.99
2018-03-16T05:50:57.749Z,99.99
2018-03-16T05:51:57.724Z,99.99
2018-03-16T05:52:57.706Z,99.99
2018-03-16T05:53:57.723Z,99.99
2018-03-16T05:54:57.733Z,99.99
2018-03-16T05:55:57.724Z,99.99
2018-03-16T05:56:57.701Z,99.99
2018-03-16T05:57:57.691Z,99.99
2018-03-16T05:58:57.798Z,99.99
2018-03-16T05:59:57.712Z,99.99
2018-03-16T06:00:57.815Z,99.99
2018-03-16T06:01:57.716Z,99.99
2018-03-16T06:02:57.702Z,99.99
2018-03-16T06:03:57.690Z,99.99
2018-03-16T06:04:57.683Z,99.99
2018-03-16T06:05:57.679Z,99.99
2018-03-16T06:06:57.701Z,99.99
2018-03-16T06:07:57.683Z,99.99
2018-03-16T06:08:57.686Z,99.99
2018-03-16T06:09:57.674Z,99.99
2018-03-16T06:10:57.675Z,99.99
2018-03-16T06:11:57.690Z,99.99
2018-03-16T06:12:57.668Z,99.99
2018-03-16T06:13:57.695Z,99.99
2018-03-16T06:14:57.659Z,99.99
2018-03-16T06:15:57.669Z,99.99
2018-03-16T06:16:57.655Z,99.99
2018-03-16T06:17:57.665Z,99.99
2018-03-16T06:18:57.724Z,99.99
2018-03-16T06:19:57.670Z,99.99
2018-03-16T06:20:57.666Z,99.99
2018-03-16T06:21:57.683Z,99.99
2018-03-16T06:22:57.657Z,99.99
2018-03-16T06:23:57.647Z,99.99
2018-03-16T06:24:57.649Z,99.99
2018-03-16T06:25:57.656Z,99.99
2018-03-16T06:26:57.669Z,99.99
2018-03-16T06:27:57.648Z,99.99
2018-03-16T06:28:57.729Z,99.99
2018-03-16T06:29:57.642Z,99.99
2018-03-16T06:30:57.650Z,99.99
2018-03-16T06:31:57.793Z,99.99
2018-03-16T06:32:57.669Z,99.99
2018-03-16T06:33:57.640Z,99.99
2018-03-16T06:34:57.660Z,99.99
2018-03-16T06:35:57.651Z,99.99
2018-03-16T06:36:57.662Z,99.99
2018-03-16T06:37:57.639Z,99.99
2018-03-16T06:38:57.648Z,99.99
2018-03-16T06:39:57.660Z,99.99
2018-03-16T06:40:57.611Z,99.99
2018-03-16T06:41:57.632Z,99.99
2018-03-16T06:42:57.718Z,99.99
2018-03-16T06:43:57.628Z,99.99
2018-03-16T06:44:57.711Z,99.99
2018-03-16T06:45:57.636Z,99.99
2018-03-16T06:46:57.650Z,99.99
2018-03-16T06:47:57.624Z,99.99
2018-03-16T06:48:57.650Z,99.99
2018-03-16T06:49:57.658Z,99.99
2018-03-16T06:50:57.620Z,99.99
2018-03-16T06:51:57.717Z,99.99
2018-03-16T06:52:57.608Z,99.99
2018-03-16T06:53:57.805Z,99.99
2018-03-16T06:54:57.598Z,99.99
2018-03-16T06:55:57.632Z,99.99
2018-03-16T06:56:57.598Z,99.99
2018-03-16T06:57:57.618Z,99.99
2018-03-16T06:58:57.593Z,99.99
2018-03-16T06:59:57.608Z,99.99
2018-03-16T07:00:57.634Z,99.99
2018-03-16T07:01:57.638Z,99.99
2018-03-16T07:02:57.579Z,99.99
2018-03-16T07:03:57.638Z,99.99
2018-03-16T07:04:57.581Z,99.99
2018-03-16T07:05:57.588Z,99.99
2018-03-16T07:06:57.581Z,99.99
2018-03-16T07:07:57.594Z,99.99
2018-03-16T07:08:57.611Z,99.99
2018-03-16T07:09:57.606Z,99.99
2018-03-16T07:10:57.605Z,99.99
2018-03-16T07:11:57.601Z,99.99
2018-03-16T07:12:58.333Z,99.99
2018-03-16T07:13:57.637Z,99.99
2018-03-16T07:14:57.560Z,99.99
2018-03-16T07:15:57.607Z,99.99
2018-03-16T07:16:57.557Z,99.99
2018-03-16T07:17:57.571Z,99.99
2018-03-16T07:18:57.585Z,99.99
2018-03-16T07:19:57.554Z,99.99
2018-03-16T07:20:57.588Z,99.99
2018-03-16T07:21:57.580Z,99.99
2018-03-16T07:22:57.588Z,99.99
2018-03-16T07:23:57.583Z,99.99
2018-03-16T07:24:57.776Z,99.99
2018-03-16T07:25:58.149Z,99.99
2018-03-16T07:26:57.642Z,99.99
2018-03-16T07:27:57.619Z,99.99
2018-03-16T07:28:57.735Z,99.99
2018-03-16T07:29:57.580Z,99.99
2018-03-16T07:30:57.882Z,99.99
2018-03-16T07:32:15.358Z,99.99
2018-03-16T07:33:33.356Z,99.99
2018-03-16T07:34:05.398Z,99.99
2018-03-16T07:34:57.656Z,99.99
2018-03-16T07:35:57.718Z,99.99
2018-03-16T07:36:57.618Z,99.99
2018-03-16T07:37:57.569Z,99.99
2018-03-16T07:38:57.612Z,99.99
2018-03-16T07:39:57.663Z,99.99
2018-03-16T07:40:57.612Z,99.99
2018-03-16T07:41:57.621Z,99.99
2018-03-16T07:42:57.560Z,99.99
2018-03-16T07:43:57.685Z,99.99
2018-03-16T07:44:57.511Z,99.99
2018-03-16T07:45:57.531Z,99.99
2018-03-16T07:46:57.716Z,99.99
2018-03-16T07:47:57.585Z,99.99
2018-03-16T07:48:57.542Z,99.99
2018-03-16T07:49:57.543Z,99.99
2018-03-16T07:50:57.499Z,99.99
2018-03-16T07:51:57.632Z,99.99
2018-03-16T07:52:57.558Z,99.99
2018-03-16T07:53:57.676Z,99.99
2018-03-16T07:54:57.562Z,99.99
2018-03-16T07:55:57.542Z,99.99
2018-03-16T07:56:57.640Z,99.99
2018-03-16T07:57:57.565Z,99.99
2018-03-16T07:58:57.490Z,99.99
2018-03-16T07:59:57.665Z,99.99
2018-03-16T08:00:57.498Z,99.99
2018-03-16T08:01:57.619Z,99.99
2018-03-16T08:02:57.703Z,99.99
2018-03-16T08:03:57.525Z,99.99
2018-03-16T08:04:57.644Z,99.99
2018-03-16T08:07:34.462Z,99.99
2018-03-16T08:07:57.612Z,99.99
2018-03-16T08:08:57.506Z,99.99
2018-03-16T08:09:59.487Z,99.99
2018-03-16T08:11:01.931Z,99.99
2018-03-16T08:11:58.077Z,99.99
2018-03-16T08:12:57.513Z,99.99
2018-03-16T08:13:57.589Z,99.99
2018-03-16T08:14:59.404Z,99.99
2018-03-16T08:15:58.087Z,99.99
2018-03-16T08:16:57.495Z,99.99
2018-03-16T08:17:58.334Z,99.99
2018-03-16T08:18:59.474Z,99.99
2018-03-16T08:19:58.653Z,99.99
2018-03-16T08:20:57.710Z,99.99
2018-03-16T08:21:57.645Z,99.99
2018-03-16T08:22:57.517Z,99.99
2018-03-16T08:23:57.569Z,99.99
2018-03-16T08:24:57.751Z,99.99
2018-03-16T08:25:57.702Z,99.99
2018-03-16T08:26:58.110Z,99.99
2018-03-16T08:27:57.509Z,99.99
2018-03-16T08:28:57.578Z,99.99
2018-03-16T08:29:58.555Z,99.99
2018-03-16T08:30:57.522Z,99.99
2018-03-16T08:31:58.446Z,99.99
2018-03-16T08:32:57.954Z,99.99
2018-03-16T08:34:04.727Z,99.99
2018-03-16T08:34:57.480Z,99.99
2018-03-16T08:35:58.966Z,99.99
2018-03-16T08:36:57.513Z,99.99
2018-03-16T08:37:57.722Z,99.99
2018-03-16T08:38:57.485Z,99.99
2018-03-16T08:39:57.475Z,99.99
2018-03-16T08:40:57.556Z,99.99
2018-03-16T08:41:58.348Z,99.99
2018-03-16T08:42:57.644Z,99.99
2018-03-16T08:43:57.496Z,99.99
2018-03-16T08:44:57.540Z,99.99
2018-03-16T08:45:57.517Z,99.99
2018-03-16T08:46:57.543Z,99.99
2018-03-16T08:47:57.424Z,99.99
2018-03-16T08:48:58.772Z,99.99
2018-03-16T08:49:57.629Z,99.99
2018-03-16T08:50:57.547Z,99.99
2018-03-16T08:51:57.460Z,99.99
2018-03-16T08:52:57.904Z,99.99
2018-03-16T08:53:57.522Z,99.99
2018-03-16T08:55:00.840Z,99.99
2018-03-16T08:55:57.508Z,99.99
2018-03-16T08:56:57.658Z,99.99
2018-03-16T08:57:57.733Z,99.99
2018-03-16T08:58:58.055Z,99.99
2018-03-16T08:59:57.403Z,99.99
2018-03-16T09:00:57.451Z,99.99
2018-03-16T09:01:57.424Z,99.99
2018-03-16T09:02:57.475Z,99.99
2018-03-16T09:03:57.427Z,99.99
2018-03-16T09:04:57.466Z,99.99
2018-03-16T09:05:57.696Z,99.99
2018-03-16T09:06:59.090Z,99.99
2018-03-16T09:07:57.451Z,99.99
2018-03-16T09:09:04.523Z,99.99
2018-03-16T09:09:57.462Z,99.99
2018-03-16T09:10:57.556Z,99.99
2018-03-16T09:11:58.242Z,99.99
2018-03-16T09:12:57.432Z,99.99
2018-03-16T09:13:57.530Z,99.99
2018-03-16T09:14:57.450Z,99.99
2018-03-16T09:15:57.526Z,99.99
2018-03-16T09:16:58.056Z,99.99
2018-03-16T09:17:57.411Z,99.99
2018-03-16T09:18:57.442Z,99.99
2018-03-16T09:19:57.452Z,99.99
2018-03-16T09:20:57.497Z,99.99
2018-03-16T09:22:04.601Z,99.99
2018-03-16T09:22:57.399Z,99.99
2018-03-16T09:23:57.631Z,99.99
2018-03-16T09:24:57.411Z,99.99
2018-03-16T09:25:57.444Z,99.99
2018-03-16T09:26:58.922Z,99.99
2018-03-16T09:27:57.419Z,99.99
2018-03-16T09:28:57.422Z,99.99
2018-03-16T09:29:58.053Z,99.99
2018-03-16T09:30:57.336Z,99.99
2018-03-16T09:31:57.417Z,99.99
2018-03-16T09:32:57.546Z,99.99
2018-03-16T09:33:57.461Z,99.99
2018-03-16T09:34:57.380Z,99.99
2018-03-16T09:35:57.534Z,99.99
2018-03-16T09:36:58.062Z,99.99
2018-03-16T09:37:57.448Z,99.99
2018-03-16T09:38:58.232Z,99.99
2018-03-16T09:39:57.421Z,99.99
2018-03-16T09:40:57.816Z,99.99
2018-03-16T09:41:59.529Z,99.99
2018-03-16T09:42:57.374Z,99.99
2018-03-16T09:43:57.484Z,99.99
2018-03-16T09:44:57.383Z,99.99
2018-03-16T09:45:57.584Z,99.99
2018-03-16T09:46:57.483Z,99.99
2018-03-16T09:47:57.658Z,99.99
2018-03-16T09:48:57.979Z,99.99
2018-03-16T09:49:57.666Z,99.99
2018-03-16T09:50:57.378Z,99.99
2018-03-16T09:51:57.715Z,99.99
2018-03-16T09:52:58.078Z,99.99
2018-03-16T09:53:57.491Z,99.99
2018-03-16T09:54:57.420Z,99.99
2018-03-16T09:55:57.453Z,99.99
2018-03-16T09:56:57.640Z,99.99
2018-03-16T09:57:57.542Z,99.99
2018-03-16T09:58:57.348Z,99.99
2018-03-16T09:59:57.426Z,99.99
2018-03-16T10:00:57.320Z,99.99
2018-03-16T10:01:57.418Z,99.99
2018-03-16T10:02:57.417Z,99.99
2018-03-16T10:03:57.328Z,99.99
2018-03-16T10:04:57.534Z,99.99
2018-03-16T10:05:57.392Z,99.99
2018-03-16T10:06:57.336Z,99.99
2018-03-16T10:07:57.308Z,99.99
2018-03-16T10:08:57.402Z,99.99
2018-03-16T10:09:57.462Z,99.99
2018-03-16T10:10:57.460Z,99.99
2018-03-16T10:11:57.790Z,99.99
2018-03-16T10:12:57.351Z,99.99
2018-03-16T10:13:57.331Z,99.99
2018-03-16T10:14:57.367Z,99.99
2018-03-16T10:15:57.373Z,99.99
2018-03-16T10:16:57.255Z,99.99
2018-03-16T10:17:57.285Z,99.99
2018-03-16T10:18:57.257Z,99.99
2018-03-16T10:19:57.328Z,99.99
2018-03-16T10:20:57.325Z,99.99
2018-03-16T10:21:58.070Z,99.99
2018-03-16T10:22:58.219Z,99.99
2018-03-16T10:23:57.468Z,99.99
2018-03-16T10:24:57.379Z,99.99
2018-03-16T10:25:57.409Z,99.99
2018-03-16T10:26:57.381Z,99.99
2018-03-16T10:27:57.434Z,99.99
2018-03-16T10:28:57.590Z,99.99
2018-03-16T10:29:57.461Z,99.99
2018-03-16T10:30:57.285Z,99.99
2018-03-16T10:31:57.252Z,99.99
2018-03-16T10:32:57.287Z,99.99
2018-03-16T10:33:58.276Z,99.99
2018-03-16T10:34:57.248Z,99.99
2018-03-16T10:35:57.586Z,99.99
2018-03-16T10:37:00.641Z,99.99
2018-03-16T10:38:03.933Z,99.99
2018-03-16T10:40:31.426Z,99.99
2018-03-16T10:44:30.709Z,99.99
2018-03-16T10:45:23.193Z,99.99
2018-03-16T10:46:23.097Z,99.99
2018-03-16T10:47:23.061Z,99.99
2018-03-16T10:48:23.088Z,99.99
2018-03-16T10:49:23.074Z,99.99
2018-03-16T10:50:23.162Z,99.99
2018-03-16T10:51:23.060Z,99.99
2018-03-16T10:52:23.028Z,99.99
2018-03-16T10:53:23.039Z,99.99
2018-03-16T10:54:23.030Z,99.99
2018-03-16T10:55:23.028Z,99.99
2018-03-16T10:56:23.033Z,99.99
2018-03-16T10:57:23.034Z,99.99
2018-03-16T10:58:23.047Z,99.99
2018-03-16T10:59:23.038Z,99.99
2018-03-16T11:00:23.024Z,99.99
2018-03-16T11:01:23.039Z,99.99
2018-03-16T11:02:23.047Z,99.99
2018-03-16T11:03:23.022Z,99.99
2018-03-16T11:04:23.013Z,99.99
2018-03-16T11:05:23.012Z,99.99
2018-03-16T11:06:23.045Z,99.99
2018-03-16T11:07:23.019Z,99.99
2018-03-16T11:08:23.029Z,99.99
2018-03-16T11:09:23.088Z,99.99
2018-03-16T11:10:23.013Z,99.99
2018-03-16T11:11:23.088Z,99.99
2018-03-16T11:12:23.004Z,99.99
2018-03-16T11:13:23.012Z,99.99
2018-03-16T11:14:22.997Z,99.99
2018-03-16T11:15:22.994Z,99.99
2018-03-16T11:16:22.992Z,99.99
2018-03-16T11:17:23.057Z,99.99
2018-03-16T11:18:22.984Z,99.99
2018-03-16T11:19:22.992Z,99.99
2018-03-16T11:20:23.020Z,99.99
2018-03-16T11:21:22.992Z,99.99
2018-03-16T11:22:23.052Z,99.99
2018-03-16T11:23:23.006Z,99.99
2018-03-16T11:24:22.993Z,99.99
2018-03-16T11:25:22.992Z,99.99
2018-03-16T11:26:22.999Z,99.99
2018-03-16T11:27:23.760Z,99.99
2018-03-16T11:28:22.969Z,99.99
2018-03-16T11:29:22.971Z,99.99
2018-03-16T11:30:23.002Z,99.99
2018-03-16T11:31:22.987Z,99.99
2018-03-16T11:32:22.987Z,99.99
2018-03-16T11:33:22.968Z,99.99
2018-03-16T11:34:22.967Z,99.99
2018-03-16T11:35:22.987Z,99.99
2018-03-16T11:36:22.954Z,99.99
2018-03-16T11:37:22.965Z,99.99
2018-03-16T11:38:22.973Z,99.99
2018-03-16T11:39:22.978Z,99.99
2018-03-16T11:40:23.761Z,99.99
2018-03-16T11:41:22.957Z,99.99
2018-03-16T11:42:22.946Z,99.99
2018-03-16T11:43:22.959Z,99.99
2018-03-16T11:44:22.950Z,99.99
2018-03-16T11:45:22.957Z,99.99
2018-03-16T11:46:22.951Z,99.99
2018-03-16T11:47:22.952Z,99.99
2018-03-16T11:48:22.943Z,99.99
2018-03-16T11:49:23.415Z,99.99
2018-03-16T11:50:23.759Z,99.99
2018-03-16T11:51:22.961Z,99.99
2018-03-16T11:52:22.934Z,99.99
2018-03-16T11:53:22.970Z,99.99
2018-03-16T11:54:22.928Z,99.99
2018-03-16T11:55:23.014Z,99.99
2018-03-16T11:56:22.923Z,99.99
2018-03-16T11:57:22.951Z,99.99
2018-03-16T11:58:22.935Z,99.99
2018-03-16T11:59:22.924Z,99.99
2018-03-16T12:00:22.914Z,99.99
2018-03-16T12:01:22.918Z,99.99
2018-03-16T12:02:22.916Z,99.99
2018-03-16T12:03:23.764Z,99.99
2018-03-16T12:04:22.929Z,99.99
2018-03-16T12:05:22.912Z,99.99
2018-03-16T12:06:22.946Z,99.99
2018-03-16T12:07:22.903Z,99.99
2018-03-16T12:08:22.943Z,99.99
2018-03-16T12:09:22.902Z,99.99
2018-03-16T12:10:22.894Z,99.99
2018-03-16T12:11:22.895Z,99.99
2018-03-16T12:12:22.911Z,99.99
2018-03-16T12:13:22.941Z,99.99
2018-03-16T12:14:22.910Z,99.99
2018-03-16T12:15:22.909Z,99.99
2018-03-16T12:16:22.932Z,99.99
2018-03-16T12:17:22.923Z,99.99
2018-03-16T12:18:22.901Z,99.99
2018-03-16T12:19:22.933Z,99.99
2018-03-16T12:20:22.888Z,99.99
2018-03-16T12:21:22.877Z,99.99
2018-03-16T12:22:22.879Z,99.99
2018-03-16T12:23:22.882Z,99.99
2018-03-16T12:24:22.878Z,99.99
2018-03-16T12:25:22.883Z,99.99
2018-03-16T12:26:22.875Z,99.99
2018-03-16T12:27:22.893Z,99.99
2018-03-16T12:28:22.903Z,99.99
2018-03-16T12:29:22.899Z,99.99
2018-03-16T12:30:23.859Z,99.99
2018-03-16T12:31:22.882Z,99.99
2018-03-16T12:32:22.883Z,99.99
2018-03-16T12:33:22.864Z,99.99
2018-03-16T12:34:22.969Z,99.99
2018-03-16T12:35:22.889Z,99.99
2018-03-16T12:36:22.862Z,99.99
2018-03-16T12:37:22.953Z,99.99
2018-03-16T12:38:22.851Z,99.99
2018-03-16T12:39:22.895Z,99.99
2018-03-16T12:40:22.848Z,99.99
2018-03-16T12:41:22.850Z,99.99
2018-03-16T12:42:22.871Z,99.99
2018-03-16T12:43:22.872Z,99.99
2018-03-16T12:44:22.870Z,99.99
2018-03-16T12:45:22.854Z,99.99
2018-03-16T12:46:22.880Z,99.99
2018-03-16T12:47:22.919Z,99.99
2018-03-16T12:48:22.836Z,99.99
2018-03-16T12:49:22.846Z,99.99
2018-03-16T12:50:22.838Z,99.99
2018-03-16T12:51:22.863Z,99.99
2018-03-16T12:52:22.852Z,99.99
2018-03-16T12:53:23.285Z,99.99
2018-03-16T12:54:22.864Z,99.99
2018-03-16T12:55:22.817Z,99.99
2018-03-16T12:56:22.830Z,99.99
2018-03-16T12:57:22.903Z,99.99
2018-03-16T12:58:22.817Z,99.99